createdAt,value
2023-03-04T00:02:18.713Z,37.17
2023-03-04T00:04:45.504Z,36.93
2023-03-04T00:07:16.644Z,35.93
2023-03-04T00:09:45.038Z,37.10
2023-03-04T00:12:12.864Z,36.90
2023-03-04T00:14:39.865Z,35.90
2023-03-04T00:17:07.115Z,33.20
2023-03-04T00:19:35.406Z,33.60
2023-03-04T00:22:03.954Z,32.63
2023-03-04T00:24:31.089Z,32.00
2023-03-04T00:26:57.944Z,31.63
2023-03-04T00:29:24.864Z,32.50
2023-03-04T00:31:51.736Z,28.50
2023-03-04T00:34:18.538Z,28.27
2023-03-04T00:36:45.304Z,28.00
2023-03-04T00:39:12.835Z,28.17
2023-03-04T00:41:39.972Z,28.10
2023-03-04T00:44:07.057Z,27.10
2023-03-04T00:46:33.889Z,27.07
2023-03-04T00:49:00.636Z,25.90
2023-03-04T00:51:27.595Z,26.90
2023-03-04T00:53:54.490Z,24.20
2023-03-04T00:56:21.414Z,23.53
2023-03-04T00:58:48.285Z,24.83
2023-03-04T01:01:15.061Z,22.00
2023-03-04T01:03:42.422Z,20.10
2023-03-04T01:06:09.424Z,18.73
2023-03-04T01:08:36.217Z,19.87
2023-03-04T01:11:03.491Z,19.03
2023-03-04T01:13:30.306Z,20.33
2023-03-04T01:15:57.747Z,18.33
2023-03-04T01:18:25.345Z,20.00
2023-03-04T01:20:52.070Z,16.43
2023-03-04T01:23:18.928Z,18.60
2023-03-04T01:25:45.875Z,15.93
2023-03-04T01:28:12.827Z,16.17
2023-03-04T01:30:39.664Z,17.40
2023-03-04T01:33:06.595Z,16.23
2023-03-04T01:35:33.452Z,16.60
2023-03-04T01:38:00.258Z,15.47
2023-03-04T01:40:27.311Z,15.07
2023-03-04T01:42:54.109Z,15.77
2023-03-04T01:45:21.307Z,14.67
2023-03-04T01:47:49.558Z,12.60
2023-03-04T01:50:34.478Z,12.80
2023-03-04T01:53:03.252Z,12.50
2023-03-04T01:55:31.138Z,10.50
2023-03-04T01:57:58.183Z,11.70
2023-03-04T02:00:31.326Z,13.90
2023-03-04T02:03:07.912Z,12.60
2023-03-04T02:05:37.178Z,12.47
2023-03-04T02:08:04.504Z,11.87
2023-03-04T02:10:31.907Z,10.83
2023-03-04T02:13:00.009Z,11.70
2023-03-04T02:15:27.103Z,11.10
2023-03-04T02:17:54.291Z,9.77
2023-03-04T02:20:35.907Z,11.70
2023-03-04T02:23:18.395Z,9.57
2023-03-04T02:25:55.057Z,11.00
2023-03-04T02:28:22.277Z,10.30
2023-03-04T02:30:49.107Z,10.30
2023-03-04T02:33:18.540Z,10.20
2023-03-04T02:35:46.035Z,9.40
2023-03-04T02:38:13.239Z,9.07
2023-03-04T02:40:43.266Z,9.57
2023-03-04T02:43:11.678Z,9.80
2023-03-04T02:45:43.865Z,8.60
2023-03-04T02:48:12.211Z,7.90
2023-03-04T02:50:51.588Z,8.50
2023-03-04T02:53:20.674Z,8.90
2023-03-04T02:55:48.023Z,7.97
2023-03-04T02:58:15.281Z,8.23
2023-03-04T03:00:42.284Z,6.60
2023-03-04T03:03:09.473Z,7.40
2023-03-04T03:05:37.271Z,7.20
2023-03-04T03:08:04.395Z,7.13
2023-03-04T03:10:31.497Z,7.17
2023-03-04T03:12:58.205Z,7.90
2023-03-04T03:15:25.257Z,7.97
2023-03-04T03:17:52.085Z,8.10
2023-03-04T03:20:19.423Z,8.53
2023-03-04T03:22:46.563Z,8.70
2023-03-04T03:25:15.434Z,8.67
2023-03-04T03:27:42.676Z,8.00
2023-03-04T03:30:12.332Z,7.90
2023-03-04T03:32:39.223Z,7.63
2023-03-04T03:35:06.453Z,7.37
2023-03-04T03:37:33.203Z,7.10
2023-03-04T03:39:59.952Z,7.63
2023-03-04T03:42:26.651Z,7.97
2023-03-04T03:44:53.437Z,6.90
2023-03-04T03:47:20.151Z,7.70
2023-03-04T03:49:47.026Z,7.93
2023-03-04T03:52:14.080Z,7.10
2023-03-04T03:54:40.955Z,7.20
2023-03-04T03:57:07.703Z,6.67
2023-03-04T03:59:34.428Z,7.80
2023-03-04T04:02:01.481Z,6.27
2023-03-04T04:04:28.267Z,6.17
2023-03-04T04:06:55.024Z,6.33
2023-03-04T04:09:21.748Z,6.07
2023-03-04T04:11:48.460Z,5.67
2023-03-04T04:14:15.340Z,5.93
2023-03-04T04:16:42.535Z,6.00
2023-03-04T04:19:18.144Z,7.57
2023-03-04T04:21:45.056Z,8.17
2023-03-04T04:24:11.986Z,9.90
2023-03-04T04:26:38.960Z,8.77
2023-03-04T04:29:06.151Z,7.30
2023-03-04T04:31:32.940Z,6.93
2023-03-04T04:33:59.834Z,5.93
2023-03-04T04:36:26.995Z,5.57
2023-03-04T04:38:53.823Z,6.50
2023-03-04T04:41:23.332Z,5.97
2023-03-04T04:43:50.329Z,7.70
2023-03-04T04:46:17.546Z,6.90
2023-03-04T04:48:44.970Z,7.17
2023-03-04T04:51:12.111Z,7.00
2023-03-04T04:53:39.140Z,10.50
2023-03-04T04:56:14.447Z,11.10
2023-03-04T04:58:41.505Z,9.50
2023-03-04T05:01:08.652Z,10.20
2023-03-04T05:03:37.015Z,12.80
2023-03-04T05:06:05.007Z,14.43
2023-03-04T05:08:32.097Z,16.33
2023-03-04T05:10:58.963Z,17.20
2023-03-04T05:13:25.845Z,16.60
2023-03-04T05:15:54.289Z,18.40
2023-03-04T05:18:22.050Z,18.87
2023-03-04T05:20:56.534Z,20.43
2023-03-04T05:23:23.574Z,19.63
2023-03-04T05:25:50.430Z,19.90
2023-03-04T05:28:17.498Z,19.60
2023-03-04T05:30:45.333Z,18.63
2023-03-04T05:33:14.087Z,17.00
2023-03-04T05:35:42.673Z,17.10
2023-03-04T05:38:12.258Z,16.53
2023-03-04T05:40:39.631Z,15.73
2023-03-04T05:43:06.610Z,13.40
2023-03-04T05:45:33.824Z,11.90
2023-03-04T05:48:00.812Z,11.63
2023-03-04T05:50:27.544Z,11.03
2023-03-04T05:52:54.359Z,8.50
2023-03-04T05:55:21.206Z,8.77
2023-03-04T05:57:48.068Z,7.90
2023-03-04T06:00:16.234Z,9.43
2023-03-04T06:02:44.256Z,7.57
2023-03-04T06:05:12.977Z,6.00
2023-03-04T06:07:39.742Z,6.67
2023-03-04T06:10:07.886Z,6.93
2023-03-04T06:12:34.621Z,7.20
2023-03-04T06:15:02.891Z,6.20
2023-03-04T06:17:30.275Z,6.63
2023-03-04T06:19:57.134Z,5.50
2023-03-04T06:22:24.112Z,4.33
2023-03-04T06:24:50.871Z,4.93
2023-03-04T06:27:17.654Z,4.20
2023-03-04T06:29:44.480Z,3.50
2023-03-04T06:32:11.231Z,3.20
2023-03-04T06:34:38.053Z,3.73
2023-03-04T06:37:04.764Z,2.77
2023-03-04T06:39:31.630Z,3.23
2023-03-04T06:41:58.315Z,3.80
2023-03-04T06:44:25.094Z,2.87
2023-03-04T06:46:51.941Z,4.17
2023-03-04T06:49:18.654Z,4.00
2023-03-04T06:51:45.332Z,6.10
2023-03-04T06:54:12.043Z,5.10
2023-03-04T06:56:38.760Z,5.60
2023-03-04T06:59:05.566Z,3.90
2023-03-04T07:01:32.673Z,4.60
2023-03-04T07:03:59.710Z,4.47
2023-03-04T07:06:28.581Z,3.43
2023-03-04T07:08:55.780Z,3.70
2023-03-04T07:11:23.287Z,3.10
2023-03-04T07:13:50.763Z,2.87
2023-03-04T07:16:20.899Z,2.63
2023-03-04T07:18:48.149Z,3.30
2023-03-04T07:21:16.294Z,2.90
2023-03-04T07:23:43.195Z,3.00
2023-03-04T07:26:10.042Z,2.90
2023-03-04T07:28:37.052Z,3.00
2023-03-04T07:31:12.080Z,2.70
2023-03-04T07:33:39.146Z,2.87
2023-03-04T07:36:06.218Z,3.13
2023-03-04T07:38:32.978Z,3.30
2023-03-04T07:41:00.552Z,3.83
2023-03-04T07:43:27.713Z,4.37
2023-03-04T07:46:00.497Z,3.57
2023-03-04T07:48:28.176Z,4.23
2023-03-04T07:51:11.295Z,4.00
2023-03-04T07:53:46.165Z,3.60
2023-03-04T07:56:25.603Z,3.53
2023-03-04T07:58:53.662Z,4.07
2023-03-04T08:01:26.924Z,3.30
2023-03-04T08:03:53.901Z,2.93
2023-03-04T08:06:22.105Z,2.80
2023-03-04T08:08:49.945Z,2.57
2023-03-04T08:11:21.142Z,2.33
2023-03-04T08:13:48.692Z,2.97
2023-03-04T08:16:17.613Z,2.63
2023-03-04T08:18:49.832Z,2.60
2023-03-04T08:21:19.366Z,2.83
2023-03-04T08:23:47.244Z,2.80
2023-03-04T08:26:27.045Z,2.07
2023-03-04T08:28:54.958Z,2.20
2023-03-04T08:31:21.819Z,3.00
2023-03-04T08:33:49.079Z,3.20
2023-03-04T08:36:16.425Z,3.20
2023-03-04T08:38:43.626Z,2.60
2023-03-04T08:41:10.699Z,2.13
2023-03-04T08:43:37.475Z,2.10
2023-03-04T08:46:04.826Z,2.50
2023-03-04T08:48:31.802Z,2.10
2023-03-04T08:50:58.889Z,2.80
2023-03-04T08:53:25.988Z,2.80
2023-03-04T08:55:53.398Z,2.10
2023-03-04T08:58:20.895Z,2.80
2023-03-04T09:00:49.400Z,1.93
2023-03-04T09:03:17.257Z,3.40
2023-03-04T09:05:45.379Z,2.20
2023-03-04T09:08:12.840Z,2.57
2023-03-04T09:10:39.732Z,2.40
2023-03-04T09:13:06.671Z,2.60
2023-03-04T09:15:36.078Z,2.20
2023-03-04T09:18:03.772Z,2.10
2023-03-04T09:20:31.474Z,2.33
2023-03-04T09:22:58.288Z,2.20
2023-03-04T09:25:25.011Z,2.90
2023-03-04T09:27:51.710Z,2.50
2023-03-04T09:30:18.790Z,2.30
2023-03-04T09:32:45.460Z,2.10
2023-03-04T09:35:12.379Z,1.67
2023-03-04T09:37:41.326Z,1.60
2023-03-04T09:40:17.183Z,1.63
2023-03-04T09:42:53.721Z,4.00
2023-03-04T09:45:24.851Z,1.80
2023-03-04T09:47:55.024Z,1.50
2023-03-04T09:50:22.338Z,2.07
2023-03-04T09:52:57.826Z,1.97
2023-03-04T09:55:39.372Z,1.87
2023-03-04T09:58:25.958Z,1.90
2023-03-04T10:01:04.073Z,2.20
2023-03-04T10:03:37.733Z,1.70
2023-03-04T10:06:11.559Z,2.00
2023-03-04T10:08:53.103Z,2.23
2023-03-04T10:11:44.214Z,2.83
2023-03-04T10:14:22.763Z,2.60
2023-03-04T10:17:00.562Z,2.47
2023-03-04T10:20:01.641Z,2.30
2023-03-04T10:22:42.106Z,1.97
2023-03-04T10:25:16.135Z,1.97
2023-03-04T10:27:47.504Z,2.10
2023-03-04T10:30:46.209Z,1.57
2023-03-04T10:33:19.109Z,1.87
2023-03-04T10:35:50.970Z,1.70
2023-03-04T10:38:21.600Z,3.10
2023-03-04T10:40:48.608Z,1.50
2023-03-04T10:43:20.147Z,1.50
2023-03-04T10:45:48.946Z,1.70
2023-03-04T10:48:27.727Z,1.67
2023-03-04T10:51:10.015Z,1.37
2023-03-04T10:53:43.962Z,1.33
2023-03-04T10:56:34.231Z,1.50
2023-03-04T10:59:24.363Z,1.73
2023-03-04T11:01:53.903Z,1.67
2023-03-04T11:04:25.663Z,1.70
2023-03-04T11:06:53.133Z,2.00
2023-03-04T11:09:26.610Z,1.80
2023-03-04T11:11:55.952Z,2.07
2023-03-04T11:14:35.085Z,2.03
2023-03-04T11:17:15.746Z,2.00
2023-03-04T11:19:45.811Z,2.40
2023-03-04T11:22:17.252Z,2.40
2023-03-04T11:24:44.874Z,2.17
2023-03-04T11:27:36.452Z,2.30
2023-03-04T11:30:29.042Z,1.97
2023-03-04T11:33:09.221Z,1.80
2023-03-04T11:36:01.403Z,2.27
2023-03-04T11:38:40.988Z,2.17
2023-03-04T11:41:16.716Z,2.43
2023-03-04T11:43:46.419Z,1.40
2023-03-04T11:46:41.214Z,1.50
2023-03-04T11:49:48.334Z,1.53
2023-03-04T11:52:40.709Z,2.10
2023-03-04T11:55:36.334Z,2.10
2023-03-04T11:58:03.159Z,2.23
2023-03-04T12:00:46.920Z,3.03
2023-03-04T12:03:31.925Z,1.70
2023-03-04T12:06:33.295Z,1.97
2023-03-04T12:09:10.152Z,1.60
2023-03-04T12:12:07.322Z,1.60
2023-03-04T12:14:44.306Z,1.40
2023-03-04T12:17:14.394Z,1.77
2023-03-04T12:19:41.083Z,1.20
2023-03-04T12:22:33.930Z,1.50
2023-03-04T12:25:19.596Z,1.43
2023-03-04T12:28:10.085Z,1.10
2023-03-04T12:30:55.657Z,1.40
2023-03-04T12:33:49.620Z,1.90
2023-03-04T12:36:29.864Z,1.60
2023-03-04T12:39:10.133Z,1.33
2023-03-04T12:42:17.191Z,1.23
2023-03-04T12:45:00.201Z,1.70
2023-03-04T12:47:35.008Z,1.37
2023-03-04T12:50:20.836Z,1.33
2023-03-04T12:53:13.926Z,1.53
2023-03-04T12:55:44.099Z,1.70
2023-03-04T12:58:21.931Z,1.20
2023-03-04T13:01:16.996Z,1.47
2023-03-04T13:04:11.382Z,1.17
2023-03-04T13:07:17.046Z,1.10
2023-03-04T13:09:50.454Z,1.20
2023-03-04T13:12:22.734Z,1.17
2023-03-04T13:15:24.799Z,1.40
2023-03-04T13:17:56.992Z,1.07
2023-03-04T13:20:31.179Z,1.70
2023-03-04T13:22:59.426Z,0.90
2023-03-04T13:25:36.081Z,0.80
2023-03-04T13:28:03.037Z,0.87
2023-03-04T13:30:32.573Z,0.90
2023-03-04T13:33:21.812Z,0.80
2023-03-04T13:36:04.243Z,0.93
2023-03-04T13:38:31.160Z,0.70
2023-03-04T13:41:16.304Z,1.77
2023-03-04T13:43:52.974Z,0.60
2023-03-04T13:46:19.780Z,1.07
2023-03-04T13:48:52.723Z,0.77
2023-03-04T13:51:41.566Z,1.10
2023-03-04T13:54:28.789Z,1.17
2023-03-04T13:57:01.519Z,0.90
2023-03-04T13:59:34.654Z,1.17
2023-03-04T14:02:08.577Z,1.00
2023-03-04T14:04:38.303Z,1.77
2023-03-04T14:07:19.334Z,1.50
2023-03-04T14:10:02.668Z,1.37
2023-03-04T14:12:32.617Z,1.40
2023-03-04T14:15:03.907Z,1.60
2023-03-04T14:17:33.166Z,1.10
2023-03-04T14:20:00.688Z,0.90
2023-03-04T14:22:31.128Z,1.07
2023-03-04T14:25:26.984Z,1.00
2023-03-04T14:28:12.162Z,1.20
2023-03-04T14:30:43.252Z,1.87
2023-03-04T14:33:22.076Z,1.20
2023-03-04T14:35:51.580Z,1.30
2023-03-04T14:38:29.942Z,1.53
2023-03-04T14:41:05.677Z,1.50
2023-03-04T14:43:38.407Z,1.30
2023-03-04T14:46:11.030Z,1.37
2023-03-04T14:48:37.981Z,1.40
2023-03-04T14:51:04.966Z,1.50
2023-03-04T14:53:33.331Z,1.47
2023-03-04T14:56:01.036Z,1.60
2023-03-04T14:58:30.599Z,1.20
2023-03-04T15:01:28.570Z,1.27
2023-03-04T15:04:05.877Z,1.37
2023-03-04T15:06:52.619Z,1.03
2023-03-04T15:09:27.354Z,1.67
2023-03-04T15:12:08.436Z,1.70
2023-03-04T15:14:41.331Z,1.37
2023-03-04T15:17:23.548Z,1.70
2023-03-04T15:20:07.295Z,1.20
2023-03-04T15:22:35.140Z,1.53
2023-03-04T15:25:02.129Z,3.10
2023-03-04T15:27:31.324Z,2.93
2023-03-04T15:30:00.761Z,2.77
2023-03-04T15:32:28.839Z,2.70
2023-03-04T15:34:56.206Z,2.73
2023-03-04T15:37:30.005Z,2.70
2023-03-04T15:39:57.678Z,2.90
2023-03-04T15:42:25.187Z,2.30
2023-03-04T15:44:51.988Z,2.20
2023-03-04T15:47:18.825Z,2.53
2023-03-04T15:49:48.666Z,2.60
2023-03-04T15:52:21.289Z,2.50
2023-03-04T15:54:49.514Z,2.40
2023-03-04T15:57:26.118Z,2.60
2023-03-04T15:59:53.755Z,2.47
2023-03-04T16:02:27.214Z,2.50
2023-03-04T16:04:54.235Z,1.97
2023-03-04T16:07:24.712Z,2.50
2023-03-04T16:09:57.526Z,2.40
2023-03-04T16:12:26.337Z,1.90
2023-03-04T16:14:53.106Z,2.53
2023-03-04T16:17:19.957Z,3.07
2023-03-04T16:19:47.258Z,3.37
2023-03-04T16:22:17.655Z,4.77
2023-03-04T16:24:44.594Z,2.67
2023-03-04T16:27:14.127Z,2.97
2023-03-04T16:29:41.644Z,2.50
2023-03-04T16:32:10.355Z,2.50
2023-03-04T16:34:37.358Z,2.93
2023-03-04T16:37:12.353Z,2.83
2023-03-04T16:39:41.227Z,2.87
2023-03-04T16:42:15.793Z,4.00
2023-03-04T16:44:43.071Z,3.20
2023-03-04T16:47:10.183Z,4.03
2023-03-04T16:49:36.846Z,3.23
2023-03-04T16:52:04.811Z,3.83
2023-03-04T16:54:34.350Z,3.20
2023-03-04T16:57:01.785Z,4.17
2023-03-04T16:59:29.408Z,3.83
2023-03-04T17:01:56.620Z,3.13
2023-03-04T17:04:23.920Z,3.10
2023-03-04T17:06:50.940Z,3.47
2023-03-04T17:09:17.637Z,3.30
2023-03-04T17:11:44.375Z,3.43
2023-03-04T17:14:11.049Z,2.90
2023-03-04T17:16:37.785Z,4.10
2023-03-04T17:19:04.507Z,4.00
2023-03-04T17:21:31.200Z,4.10
2023-03-04T17:23:58.135Z,4.63
2023-03-04T17:26:25.684Z,4.47
2023-03-04T17:28:52.484Z,4.27
2023-03-04T17:31:21.171Z,4.50
2023-03-04T17:33:48.375Z,3.90
2023-03-04T17:36:17.377Z,3.80
2023-03-04T17:38:47.071Z,3.77
2023-03-04T17:41:17.502Z,4.93
2023-03-04T17:43:48.871Z,4.03
2023-03-04T17:46:19.124Z,4.47
2023-03-04T17:48:45.856Z,4.40
2023-03-04T17:51:12.672Z,4.50
2023-03-04T17:53:39.968Z,3.83
2023-03-04T17:56:09.018Z,4.50
2023-03-04T17:58:36.627Z,5.00
2023-03-04T18:01:21.552Z,3.90
2023-03-04T18:03:49.192Z,4.00
2023-03-04T18:06:17.198Z,3.43
2023-03-04T18:08:44.458Z,4.23
2023-03-04T18:11:11.734Z,4.53
2023-03-04T18:13:39.421Z,4.33
2023-03-04T18:16:06.415Z,3.70
2023-03-04T18:18:33.126Z,3.80
2023-03-04T18:21:01.072Z,4.73
2023-03-04T18:23:29.004Z,5.17
2023-03-04T18:25:56.198Z,3.40
2023-03-04T18:28:23.510Z,2.77
2023-03-04T18:30:54.391Z,3.00
2023-03-04T18:33:21.844Z,2.93
2023-03-04T18:35:48.832Z,3.07
2023-03-04T18:38:16.010Z,4.23
2023-03-04T18:40:44.287Z,3.53
2023-03-04T18:43:11.090Z,4.40
2023-03-04T18:45:37.921Z,3.20
2023-03-04T18:48:04.929Z,3.57
2023-03-04T18:50:31.633Z,2.53
2023-03-04T18:52:58.552Z,3.13
2023-03-04T18:55:26.634Z,2.63
2023-03-04T18:57:57.960Z,2.73
2023-03-04T19:00:25.074Z,3.20
2023-03-04T19:02:53.615Z,3.43
2023-03-04T19:05:23.034Z,3.63
2023-03-04T19:07:49.988Z,3.40
2023-03-04T19:10:17.319Z,2.60
2023-03-04T19:12:45.009Z,2.73
2023-03-04T19:15:12.908Z,2.70
2023-03-04T19:17:40.268Z,2.70
2023-03-04T19:20:09.184Z,2.70
2023-03-04T19:22:36.365Z,2.60
2023-03-04T19:25:03.832Z,3.73
2023-03-04T19:27:32.458Z,3.30
2023-03-04T19:29:59.222Z,2.30
2023-03-04T19:32:26.344Z,2.77
2023-03-04T19:34:53.682Z,3.00
2023-03-04T19:37:20.419Z,3.13
2023-03-04T19:39:49.041Z,2.43
2023-03-04T19:42:16.098Z,2.90
2023-03-04T19:44:44.893Z,3.73
2023-03-04T19:47:12.220Z,3.00
2023-03-04T19:49:39.003Z,2.67
2023-03-04T19:52:05.852Z,3.00
2023-03-04T19:54:33.019Z,2.67
2023-03-04T19:56:59.687Z,3.00
2023-03-04T19:59:26.489Z,2.93
2023-03-04T20:01:54.183Z,3.10
2023-03-04T20:04:21.908Z,2.13
2023-03-04T20:06:50.853Z,1.83
2023-03-04T20:09:19.013Z,2.17
2023-03-04T20:11:57.839Z,2.60
2023-03-04T20:14:27.100Z,2.77
2023-03-04T20:16:53.825Z,2.43
2023-03-04T20:19:20.576Z,2.07
2023-03-04T20:21:47.302Z,2.10
2023-03-04T20:24:15.182Z,2.10
2023-03-04T20:26:42.107Z,1.90
2023-03-04T20:29:08.798Z,1.57
2023-03-04T20:31:38.791Z,2.37
2023-03-04T20:34:06.741Z,2.13
2023-03-04T20:36:34.530Z,2.00
2023-03-04T20:39:02.832Z,1.90
2023-03-04T20:41:31.687Z,2.17
2023-03-04T20:43:58.432Z,3.90
2023-03-04T20:46:42.999Z,2.20
2023-03-04T20:49:16.167Z,2.60
2023-03-04T20:51:43.430Z,3.17
2023-03-04T20:54:10.622Z,2.33
2023-03-04T20:56:37.914Z,2.70
2023-03-04T20:59:07.743Z,2.93
2023-03-04T21:01:36.310Z,2.17
2023-03-04T21:04:03.763Z,2.60
2023-03-04T21:06:30.988Z,2.20
2023-03-04T21:09:01.332Z,2.40
2023-03-04T21:11:28.261Z,2.50
2023-03-04T21:13:57.531Z,3.93
2023-03-04T21:16:26.937Z,3.43
2023-03-04T21:18:54.080Z,3.00
2023-03-04T21:21:24.033Z,2.53
2023-03-04T21:23:52.089Z,3.17
2023-03-04T21:26:20.377Z,3.50
2023-03-04T21:28:47.192Z,4.30
2023-03-04T21:31:20.017Z,3.70
2023-03-04T21:33:47.142Z,3.60
2023-03-04T21:36:14.412Z,3.30
2023-03-04T21:38:42.785Z,3.20
2023-03-04T21:41:13.228Z,2.40
2023-03-04T21:43:40.332Z,2.50
2023-03-04T21:46:09.003Z,2.70
2023-03-04T21:48:36.373Z,2.50
2023-03-04T21:51:05.503Z,2.43
2023-03-04T21:53:33.883Z,2.50
2023-03-04T21:56:00.903Z,2.03
2023-03-04T21:58:28.045Z,2.40
2023-03-04T22:00:55.006Z,2.20
2023-03-04T22:03:22.760Z,2.77
2023-03-04T22:05:49.528Z,2.13
2023-03-04T22:08:18.787Z,2.50
2023-03-04T22:10:46.883Z,2.33
2023-03-04T22:13:15.466Z,2.57
2023-03-04T22:15:43.781Z,2.33
2023-03-04T22:18:13.291Z,1.60
2023-03-04T22:20:42.256Z,1.60
2023-03-04T22:23:09.474Z,2.40
2023-03-04T22:25:37.651Z,2.30
2023-03-04T22:28:05.243Z,2.33
2023-03-04T22:30:32.706Z,1.87
2023-03-04T22:32:59.426Z,2.10
2023-03-04T22:35:26.570Z,2.37
2023-03-04T22:37:53.682Z,1.90
2023-03-04T22:40:20.589Z,2.30
2023-03-04T22:42:48.020Z,2.07
2023-03-04T22:45:17.247Z,2.30
2023-03-04T22:47:49.388Z,2.10
2023-03-04T22:50:16.375Z,1.83
2023-03-04T22:52:44.076Z,2.00
2023-03-04T22:55:17.219Z,2.20
2023-03-04T22:57:44.138Z,2.90
2023-03-04T23:00:30.851Z,2.40
2023-03-04T23:02:57.989Z,2.10
2023-03-04T23:05:25.192Z,1.70
2023-03-04T23:07:52.350Z,2.43
2023-03-04T23:10:24.638Z,2.00
2023-03-04T23:12:52.665Z,2.57
2023-03-04T23:15:19.933Z,2.07
2023-03-04T23:17:47.061Z,2.33
2023-03-04T23:20:17.620Z,1.90
2023-03-04T23:22:45.452Z,2.10
2023-03-04T23:25:13.302Z,4.27
2023-03-04T23:27:40.999Z,1.50
2023-03-04T23:30:14.846Z,2.00
2023-03-04T23:32:42.524Z,2.60
2023-03-04T23:35:09.383Z,2.27
2023-03-04T23:37:36.121Z,2.60
2023-03-04T23:40:03.470Z,2.00
2023-03-04T23:42:30.171Z,2.33
2023-03-04T23:44:56.961Z,2.57
2023-03-04T23:47:23.803Z,1.80
2023-03-04T23:49:50.579Z,1.93
2023-03-04T23:52:17.321Z,2.53
2023-03-04T23:54:44.083Z,1.53
2023-03-04T23:57:10.848Z,2.93
2023-03-04T23:59:38.758Z,1.83
